Time;durP1;ratioP1;P1;durP2;ratioP2;P2;SDS_P1;SDS_P2;PMS_P1;PMS_P2;Temp;Humidity;BMP_temperature;BMP_pressure;BME280_temperature;BME280_humidity;BME280_pressure;Samples;Min_cycle;Max_cycle;Signal;HPM_P1;HPM_P2
2023/02/06 00:00:22;;;;;;;85.22;42.88;;;39.20;2201.60;;;;;;5032703;28;20021;-62
2023/02/06 00:02:49;;;;;;;39.30;22.15;;;39.30;2201.60;;;;;;5034511;28;20032;-62
2023/02/06 00:05:15;;;;;;;52.15;26.95;;;39.30;2201.60;;;;;;5034536;28;20128;-62
2023/02/06 00:07:41;;;;;;;46.78;26.13;;;39.30;2201.60;;;;;;5034553;28;20103;-62
2023/02/06 00:10:07;;;;;;;29.20;15.00;;;64.00;2201.60;;;;;;5034598;28;20483;-61
2023/02/06 00:12:34;;;;;;;24.80;10.95;;;64.00;2201.60;;;;;;5034151;28;20112;-62
2023/02/06 00:15:00;;;;;;;24.73;12.07;;;64.00;2201.60;;;;;;5034429;28;20100;-63
2023/02/06 00:17:26;;;;;;;39.85;18.48;;;64.10;2201.60;;;;;;5034774;28;20582;-62
2023/02/06 00:19:51;;;;;;;27.25;14.35;;;64.10;2201.60;;;;;;5033940;28;20017;-62
2023/02/06 00:22:17;;;;;;;32.88;17.60;;;64.20;2201.60;;;;;;5034194;28;20068;-62
2023/02/06 00:24:43;;;;;;;28.58;15.05;;;64.10;2201.60;;;;;;5033993;28;20089;-62
2023/02/06 00:27:08;;;;;;;40.35;19.83;;;64.20;2201.60;;;;;;5034135;28;20022;-63
2023/02/06 00:29:34;;;;;;;41.53;21.42;;;64.20;2201.60;;;;;;5033998;28;20033;-63
2023/02/06 00:32:00;;;;;;;35.58;18.10;;;64.20;2201.60;;;;;;5034006;28;20028;-62
2023/02/06 00:34:26;;;;;;;29.35;15.00;;;64.30;2201.60;;;;;;5034039;28;20048;-62
2023/02/06 00:36:51;;;;;;;56.20;25.27;;;64.30;2201.60;;;;;;5033631;28;20033;-61
2023/02/06 00:39:18;;;;;;;42.95;19.75;;;64.30;2201.60;;;;;;5033987;28;20067;-61
2023/02/06 00:41:44;;;;;;;30.05;18.67;;;64.30;2201.60;;;;;;5033795;28;20021;-62
2023/02/06 00:44:10;;;;;;;36.28;19.92;;;64.30;2201.60;;;;;;5033623;28;20103;-61
2023/02/06 00:46:36;;;;;;;33.05;16.00;;;64.40;2201.60;;;;;;5033936;28;20017;-61
2023/02/06 00:49:02;;;;;;;18.98;10.50;;;64.30;2201.60;;;;;;5033559;28;20071;-61
2023/02/06 00:51:28;;;;;;;27.42;12.98;;;64.40;2201.60;;;;;;5033486;28;20049;-61
2023/02/06 00:53:54;;;;;;;28.05;14.18;;;64.50;2201.60;;;;;;5033535;28;20037;-60
2023/02/06 00:56:19;;;;;;;17.75;10.40;;;64.50;2201.60;;;;;;5033774;28;20048;-61
2023/02/06 00:58:45;;;;;;;14.88;8.52;;;64.50;2201.60;;;;;;5033568;28;20109;-62
2023/02/06 01:01:11;;;;;;;13.25;10.23;;;64.50;2201.60;;;;;;5033356;28;20032;-62
2023/02/06 01:03:37;;;;;;;21.88;12.15;;;64.60;2201.60;;;;;;5033311;28;20060;-61
2023/02/06 01:06:03;;;;;;;40.53;22.50;;;64.60;2201.60;;;;;;5033436;28;20029;-61
2023/02/06 01:08:28;;;;;;;17.10;9.07;;;64.60;2201.60;;;;;;5033517;28;20025;-61
2023/02/06 01:10:54;;;;;;;14.77;8.65;;;64.70;2201.60;;;;;;5032672;28;20032;-62
2023/02/06 01:13:20;;;;;;;24.17;12.15;;;64.70;2201.60;;;;;;5032556;28;20100;-62
2023/02/06 01:15:45;;;;;;;38.10;20.90;;;64.70;2201.60;;;;;;5033216;28;20029;-61
2023/02/06 01:18:11;;;;;;;14.63;6.65;;;64.70;2201.60;;;;;;5032923;28;20022;-61
2023/02/06 01:20:38;;;;;;;28.25;16.98;;;64.70;2201.60;;;;;;5033322;28;20029;-62
2023/02/06 01:23:04;;;;;;;14.40;9.05;;;64.70;2201.60;;;;;;5032942;28;20044;-60
2023/02/06 01:25:30;;;;;;;17.58;8.45;;;64.80;2201.60;;;;;;5033057;28;20120;-62
2023/02/06 01:27:56;;;;;;;15.85;8.07;;;64.90;2201.60;;;;;;5033020;28;20025;-62
2023/02/06 01:30:21;;;;;;;53.25;23.67;;;64.80;2201.60;;;;;;5032870;28;20048;-63
2023/02/06 01:32:47;;;;;;;16.83;8.98;;;64.80;2201.60;;;;;;5032951;28;20112;-62
2023/02/06 01:35:13;;;;;;;157.13;62.65;;;64.90;2201.60;;;;;;5032657;28;20068;-62
2023/02/06 01:37:39;;;;;;;24.83;11.85;;;64.80;2201.60;;;;;;5033182;28;20032;-62
2023/02/06 01:40:07;;;;;;;22.70;9.93;;;64.80;2201.60;;;;;;5032949;28;20065;-62
2023/02/06 01:42:34;;;;;;;35.63;14.93;;;64.90;2201.60;;;;;;5032489;28;20021;-62
2023/02/06 01:45:25;;;;;;;22.13;12.73;;;89.60;2201.60;;;;;;5032427;28;20116;-62
2023/02/06 01:48:01;;;;;;;15.13;9.55;;;89.60;2201.60;;;;;;5032618;28;20029;-62
2023/02/06 01:50:28;;;;;;;29.85;13.70;;;89.60;2201.60;;;;;;5032362;28;20042;-62
2023/02/06 01:52:54;;;;;;;16.08;8.32;;;89.70;2176.00;;;;;;5032228;28;20510;-61
2023/02/06 01:55:20;;;;;;;18.80;9.05;;;89.70;2176.00;;;;;;5032348;28;20053;-62
2023/02/06 01:57:45;;;;;;;16.38;7.50;;;89.60;2201.60;;;;;;5032595;28;20049;-62
2023/02/06 02:00:12;;;;;;;14.57;7.97;;;89.60;2201.60;;;;;;5032418;28;20427;-62
2023/02/06 02:02:44;;;;;;;28.63;15.07;;;89.60;2201.60;;;;;;5032369;28;20030;-61
2023/02/06 02:05:11;;;;;;;15.38;7.82;;;89.70;2176.00;;;;;;5032509;28;20037;-62
2023/02/06 02:07:43;;;;;;;29.08;13.80;;;89.70;2176.00;;;;;;5032440;28;20029;-60
2023/02/06 02:10:09;;;;;;;47.58;22.33;;;89.80;2176.00;;;;;;5032401;28;20052;-61
2023/02/06 02:12:35;;;;;;;22.90;11.80;;;89.90;2176.00;;;;;;5032219;28;20463;-62
2023/02/06 02:15:01;;;;;;;27.50;11.10;;;89.90;2176.00;;;;;;5032015;28;20112;-61
2023/02/06 02:17:51;;;;;;;74.00;35.25;;;89.90;2176.00;;;;;;5032171;28;20018;-61
2023/02/06 02:21:10;;;;;;;24.17;11.13;;;89.90;2176.00;;;;;;5032307;28;20044;-61
2023/02/06 02:23:44;;;;;;;40.00;19.33;;;89.90;2176.00;;;;;;4951625;28;20169;-61
2023/02/06 02:27:00;;;;;;;15.30;7.85;;;89.80;2176.00;;;;;;4951904;29;20031;-61
2023/02/06 02:29:37;;;;;;;25.45;12.10;;;89.70;2176.00;;;;;;4951884;29;20081;-61
2023/02/06 02:32:30;;;;;;;16.13;9.88;;;64.90;2201.60;;;;;;4951458;29;20521;-61
2023/02/06 02:35:25;;;;;;;18.80;11.95;;;64.70;2201.60;;;;;;4951791;29;20039;-62
2023/02/06 02:38:05;;;;;;;17.17;8.93;;;64.70;2201.60;;;;;;4951460;29;20473;-62
2023/02/06 02:40:41;;;;;;;16.98;8.70;;;64.70;2201.60;;;;;;4951479;29;20031;-62
2023/02/06 02:43:18;;;;;;;18.10;9.50;;;64.50;2201.60;;;;;;4951577;29;20031;-62
2023/02/06 02:45:59;;;;;;;14.40;7.30;;;64.50;2201.60;;;;;;4951273;29;20027;-62
2023/02/06 02:48:29;;;;;;;14.90;8.27;;;64.50;2201.60;;;;;;4951318;29;20035;-62
2023/02/06 02:50:57;;;;;;;113.10;53.97;;;64.60;2201.60;;;;;;4978103;28;20503;-61
2023/02/06 02:53:23;;;;;;;57.67;26.60;;;64.60;2201.60;;;;;;5002271;28;20116;-61
2023/02/06 02:55:49;;;;;;;20.27;10.88;;;64.60;2201.60;;;;;;5051435;28;20065;-62
2023/02/06 02:58:22;;;;;;;15.90;9.02;;;64.50;2201.60;;;;;;5051241;28;20475;-63
2023/02/06 03:00:55;;;;;;;;;;;64.50;2201.60;;;;;;5051913;28;20025;-61
2023/02/06 03:03:23;;;;;;;67.82;32.28;;;64.40;2201.60;;;;;;5051008;28;20354;-62
2023/02/06 03:06:15;;;;;;;37.67;19.08;;;64.50;2201.60;;;;;;5050881;28;20059;-61
2023/02/06 03:09:15;;;;;;;18.33;9.90;;;64.40;2201.60;;;;;;5050975;28;20497;-62
2023/02/06 03:11:53;;;;;;;37.78;16.63;;;64.30;2201.60;;;;;;5050910;28;20029;-62
2023/02/06 03:14:37;;;;;;;14.80;7.28;;;64.30;2201.60;;;;;;5050978;28;20052;-62
2023/02/06 03:17:12;;;;;;;14.80;7.50;;;64.40;2201.60;;;;;;5050899;28;20025;-63
2023/02/06 03:19:44;;;;;;;14.85;8.00;;;64.40;2201.60;;;;;;5050907;28;20029;-61
2023/02/06 03:22:11;;;;;;;17.85;9.38;;;64.40;2201.60;;;;;;5050692;28;20513;-62
2023/02/06 03:24:38;;;;;;;14.43;8.00;;;64.30;2201.60;;;;;;5051096;28;20072;-61
2023/02/06 03:27:10;;;;;;;13.80;7.65;;;64.30;2201.60;;;;;;5050791;28;20021;-63
2023/02/06 03:29:38;;;;;;;14.73;8.20;;;64.20;2201.60;;;;;;5051101;28;20057;-62
2023/02/06 03:32:22;;;;;;;17.65;10.23;;;64.20;2201.60;;;;;;5050685;28;20017;-62
2023/02/06 03:34:57;;;;;;;20.92;10.15;;;64.30;2201.60;;;;;;5050044;28;20068;-63
2023/02/06 03:37:23;;;;;;;43.00;23.23;;;64.20;2201.60;;;;;;5050711;28;20025;-62
2023/02/06 03:39:49;;;;;;;21.40;11.25;;;64.20;2201.60;;;;;;5050776;28;20028;-62
2023/02/06 03:42:16;;;;;;;23.77;12.88;;;64.30;2201.60;;;;;;5050761;28;20482;-61
2023/02/06 03:44:48;;;;;;;14.77;7.82;;;64.20;2201.60;;;;;;5050348;28;20082;-61
2023/02/06 03:47:16;;;;;;;47.53;21.67;;;64.10;2201.60;;;;;;5050144;28;20032;-62
2023/02/06 03:49:44;;;;;;;17.00;9.45;;;64.00;2201.60;;;;;;5046342;28;20136;-61
2023/02/06 03:52:14;;;;;;;81.32;34.30;;;64.10;2201.60;;;;;;5030361;28;20029;-62
2023/02/06 03:54:46;;;;;;;21.25;11.23;;;64.10;2201.60;;;;;;5030405;28;20071;-62
2023/02/06 03:57:18;;;;;;;24.95;11.77;;;64.10;2201.60;;;;;;5030965;28;20064;-62
2023/02/06 03:59:44;;;;;;;39.80;19.33;;;64.10;2201.60;;;;;;5050397;28;20034;-63
2023/02/06 04:02:11;;;;;;;17.45;8.85;;;64.10;2201.60;;;;;;5050275;28;20087;-62
2023/02/06 04:04:40;;;;;;;15.35;9.68;;;64.00;2201.60;;;;;;5050374;28;20041;-62
2023/02/06 04:07:20;;;;;;;16.40;10.07;;;64.00;2201.60;;;;;;5050508;28;20017;-61
2023/02/06 04:09:46;;;;;;;15.38;8.90;;;64.10;2201.60;;;;;;5050309;28;20060;-62
2023/02/06 04:12:12;;;;;;;13.88;8.30;;;64.00;2201.60;;;;;;5050158;28;20083;-62
2023/02/06 04:14:38;;;;;;;17.98;10.38;;;64.10;2201.60;;;;;;5050500;28;20025;-61
2023/02/06 04:17:04;;;;;;;22.48;13.13;;;64.00;2201.60;;;;;;5050390;28;20025;-62
2023/02/06 04:19:30;;;;;;;19.95;11.88;;;64.00;2201.60;;;;;;5049953;28;20056;-63
2023/02/06 04:21:56;;;;;;;16.25;9.35;;;64.00;2201.60;;;;;;5049940;28;20121;-62
2023/02/06 04:24:22;;;;;;;15.75;9.10;;;64.00;2201.60;;;;;;5050102;28;20398;-63
2023/02/06 04:26:48;;;;;;;14.70;8.18;;;39.30;2201.60;;;;;;5050133;28;20481;-62
2023/02/06 04:29:13;;;;;;;13.00;9.00;;;64.00;2201.60;;;;;;5050022;28;20033;-62
2023/02/06 04:31:39;;;;;;;14.73;8.82;;;64.00;2201.60;;;;;;5050261;28;20025;-62
2023/02/06 04:34:05;;;;;;;18.45;9.55;;;39.30;2201.60;;;;;;5050064;28;20032;-62
2023/02/06 04:36:32;;;;;;;16.75;9.23;;;39.30;2201.60;;;;;;5049849;28;20021;-62
2023/02/06 04:38:58;;;;;;;19.95;9.02;;;39.20;2201.60;;;;;;5050091;28;20390;-61
2023/02/06 04:41:23;;;;;;;19.83;9.60;;;39.20;2201.60;;;;;;5049753;28;20025;-61
2023/02/06 04:43:49;;;;;;;17.75;9.30;;;39.20;2201.60;;;;;;5050087;28;20052;-63
2023/02/06 04:46:15;;;;;;;16.05;8.93;;;39.30;2201.60;;;;;;5051564;28;20399;-62
2023/02/06 04:48:41;;;;;;;24.08;12.73;;;64.00;2201.60;;;;;;5053473;28;20410;-61
2023/02/06 04:51:06;;;;;;;30.23;17.38;;;64.00;2201.60;;;;;;5053484;28;20138;-61
2023/02/06 04:53:32;;;;;;;16.30;9.90;;;64.00;2201.60;;;;;;5053372;28;20028;-61
2023/02/06 04:56:07;;;;;;;15.43;9.80;;;64.00;2201.60;;;;;;5053681;28;20041;-63
2023/02/06 04:58:33;;;;;;;19.98;9.85;;;64.10;2201.60;;;;;;5053318;28;20116;-61
2023/02/06 05:01:00;;;;;;;23.23;11.68;;;64.10;2201.60;;;;;;5053720;28;20075;-64
2023/02/06 05:03:28;;;;;;;23.15;11.48;;;64.00;2201.60;;;;;;5053654;28;20061;-61
2023/02/06 05:05:54;;;;;;;19.50;9.63;;;64.10;2201.60;;;;;;5053115;28;20104;-63
2023/02/06 05:08:20;;;;;;;23.42;13.27;;;64.20;2201.60;;;;;;5053413;28;20562;-63
2023/02/06 05:10:46;;;;;;;23.02;11.60;;;64.20;2201.60;;;;;;5053343;28;20088;-62
2023/02/06 05:13:11;;;;;;;19.95;10.60;;;64.10;2201.60;;;;;;5053324;28;20509;-61
2023/02/06 05:15:38;;;;;;;21.75;12.60;;;64.10;2201.60;;;;;;5053272;28;20029;-61
2023/02/06 05:18:04;;;;;;;21.52;11.75;;;64.10;2201.60;;;;;;5035454;28;20412;-62
2023/02/06 05:20:30;;;;;;;24.00;13.00;;;64.00;2201.60;;;;;;5052979;28;20104;-61
2023/02/06 05:22:56;;;;;;;34.67;17.70;;;39.30;2201.60;;;;;;5052778;28;20040;-64
2023/02/06 05:25:22;;;;;;;25.27;14.02;;;39.30;2201.60;;;;;;5052902;28;20033;-61
2023/02/06 05:27:48;;;;;;;41.05;20.55;;;39.30;2201.60;;;;;;5053229;28;20028;-61
2023/02/06 05:30:14;;;;;;;25.98;13.82;;;64.10;2201.60;;;;;;5052933;28;20033;-63
2023/02/06 05:32:40;;;;;;;42.80;20.65;;;64.00;2201.60;;;;;;5052862;28;20029;-62
2023/02/06 05:35:06;;;;;;;23.92;12.68;;;39.30;2201.60;;;;;;5052991;28;20025;-62
2023/02/06 05:37:32;;;;;;;21.80;11.68;;;64.10;2201.60;;;;;;5052513;28;20112;-62
2023/02/06 05:39:58;;;;;;;22.73;13.60;;;64.10;2201.60;;;;;;5052731;28;20083;-61
2023/02/06 05:42:24;;;;;;;29.67;15.50;;;64.10;2201.60;;;;;;5052376;28;20021;-62
2023/02/06 05:44:50;;;;;;;22.38;11.60;;;64.10;2201.60;;;;;;5052716;28;20037;-61
2023/02/06 05:47:15;;;;;;;26.13;12.93;;;64.20;2201.60;;;;;;5052600;28;20101;-62
2023/02/06 05:49:42;;;;;;;22.77;13.00;;;64.20;2201.60;;;;;;5052294;28;20086;-62
2023/02/06 05:52:09;;;;;;;22.77;11.10;;;64.10;2201.60;;;;;;5052409;28;20035;-62
2023/02/06 05:54:35;;;;;;;22.75;12.13;;;64.20;2201.60;;;;;;5052433;28;20064;-62
2023/02/06 05:57:01;;;;;;;27.77;16.02;;;64.10;2201.60;;;;;;5051905;28;20056;-62
2023/02/06 05:59:27;;;;;;;24.80;14.05;;;64.10;2201.60;;;;;;5052193;28;20459;-62
2023/02/06 06:01:53;;;;;;;28.83;15.43;;;64.00;2201.60;;;;;;5052217;28;20037;-61
2023/02/06 06:04:18;;;;;;;25.05;13.90;;;64.10;2201.60;;;;;;5052358;28;20047;-62
2023/02/06 06:06:44;;;;;;;29.73;15.20;;;64.00;2201.60;;;;;;5051889;28;20024;-63
2023/02/06 06:09:10;;;;;;;20.67;11.38;;;64.00;2201.60;;;;;;5052060;28;20025;-63
2023/02/06 06:11:36;;;;;;;31.35;15.68;;;64.00;2201.60;;;;;;5052148;28;20032;-62
2023/02/06 06:14:01;;;;;;;36.17;18.60;;;39.20;2201.60;;;;;;5051914;28;20033;-62
2023/02/06 06:16:27;;;;;;;34.00;16.98;;;39.20;2201.60;;;;;;5052144;28;20061;-62
2023/02/06 06:18:54;;;;;;;37.17;18.35;;;39.20;2201.60;;;;;;5051945;28;20037;-62
2023/02/06 06:21:21;;;;;;;27.25;14.30;;;39.20;2201.60;;;;;;5051627;28;20032;-63
2023/02/06 06:23:47;;;;;;;27.60;14.68;;;39.30;2201.60;;;;;;5051741;28;20049;-62
2023/02/06 06:26:13;;;;;;;47.38;25.25;;;64.10;2201.60;;;;;;5051752;28;20025;-62
2023/02/06 06:28:39;;;;;;;41.17;21.38;;;64.00;2201.60;;;;;;5051924;28;20029;-62
2023/02/06 06:31:07;;;;;;;30.25;17.73;;;64.00;2201.60;;;;;;5051640;28;20032;-61
2023/02/06 06:33:33;;;;;;;42.15;21.92;;;64.00;2201.60;;;;;;5051707;28;20035;-62
2023/02/06 06:35:59;;;;;;;37.17;17.15;;;64.10;2201.60;;;;;;5051657;28;20112;-64
2023/02/06 06:38:25;;;;;;;32.58;16.42;;;64.00;2201.60;;;;;;5051729;28;20021;-62
2023/02/06 06:40:51;;;;;;;37.60;19.80;;;64.00;2201.60;;;;;;5051455;28;20029;-62
2023/02/06 06:43:17;;;;;;;38.80;20.42;;;64.00;2201.60;;;;;;5051501;28;20036;-62
2023/02/06 06:45:43;;;;;;;37.67;22.33;;;39.30;2201.60;;;;;;5051397;28;20033;-62
2023/02/06 06:48:08;;;;;;;58.97;28.00;;;39.20;2201.60;;;;;;5051265;28;20079;-62
2023/02/06 06:50:34;;;;;;;73.82;40.78;;;39.30;2201.60;;;;;;5051147;28;20107;-63
2023/02/06 06:53:00;;;;;;;63.30;32.13;;;39.30;2201.60;;;;;;5051035;28;20029;-62
2023/02/06 06:55:26;;;;;;;90.10;50.53;;;39.30;2201.60;;;;;;5051315;28;20029;-62
2023/02/06 06:57:52;;;;;;;105.40;71.20;;;39.30;2201.60;;;;;;5051045;28;20388;-62
2023/02/06 07:00:18;;;;;;;169.80;148.52;;;39.30;2201.60;;;;;;5050978;28;20025;-62
2023/02/06 07:02:44;;;;;;;74.65;63.88;;;39.30;2201.60;;;;;;5050978;28;20483;-62
2023/02/06 07:05:10;;;;;;;36.92;24.30;;;39.20;2201.60;;;;;;5051067;28;20149;-62
2023/02/06 07:07:37;;;;;;;34.70;19.13;;;39.20;2201.60;;;;;;5050972;28;20060;-63
2023/02/06 07:10:05;;;;;;;39.35;23.77;;;39.10;2201.60;;;;;;5049997;28;20479;-62
2023/02/06 07:12:30;;;;;;;44.22;26.42;;;39.10;2201.60;;;;;;5050743;28;20471;-62
2023/02/06 07:14:56;;;;;;;35.35;19.48;;;38.90;2201.60;;;;;;5050882;28;20025;-62
2023/02/06 07:17:22;;;;;;;43.45;21.23;;;39.00;2201.60;;;;;;5050771;28;20091;-63
2023/02/06 07:19:50;;;;;;;45.88;23.95;;;38.90;2201.60;;;;;;5050853;28;20033;-62
2023/02/06 07:22:16;;;;;;;33.33;17.08;;;38.90;2201.60;;;;;;5050735;28;20036;-62
2023/02/06 07:24:42;;;;;;;54.28;30.13;;;38.80;2201.60;;;;;;5050544;28;20045;-62
2023/02/06 07:27:07;;;;;;;46.30;24.73;;;39.00;2201.60;;;;;;5050489;28;20048;-62
2023/02/06 07:29:33;;;;;;;57.25;31.48;;;39.10;2201.60;;;;;;5050431;28;20036;-63
2023/02/06 07:31:59;;;;;;;50.55;28.50;;;39.00;2201.60;;;;;;5050658;28;20523;-62
2023/02/06 07:34:24;;;;;;;50.95;26.85;;;39.00;2201.60;;;;;;5050638;28;20033;-62
2023/02/06 07:36:50;;;;;;;53.53;25.48;;;38.90;2201.60;;;;;;5050487;28;20064;-63
2023/02/06 07:39:16;;;;;;;23.85;14.35;;;38.70;2201.60;;;;;;5050648;28;20021;-62
2023/02/06 07:41:42;;;;;;;32.38;18.45;;;38.80;2201.60;;;;;;5050537;28;20103;-64
2023/02/06 07:44:09;;;;;;;28.48;16.63;;;38.80;2201.60;;;;;;5050296;28;20567;-61
2023/02/06 07:46:35;;;;;;;35.22;20.13;;;38.80;2201.60;;;;;;5050673;28;20033;-63
2023/02/06 07:49:01;;;;;;;29.92;18.42;;;38.80;2201.60;;;;;;5050414;28;20337;-61
2023/02/06 07:51:27;;;;;;;42.60;20.95;;;38.70;2201.60;;;;;;5046580;28;20400;-63
2023/02/06 07:53:53;;;;;;;39.33;22.77;;;38.60;2201.60;;;;;;5037820;28;20041;-63
2023/02/06 07:56:22;;;;;;;30.95;17.08;;;38.40;2201.60;;;;;;5040014;28;20090;-61
2023/02/06 07:58:52;;;;;;;38.10;22.33;;;38.50;2201.60;;;;;;5030420;28;20037;-61
2023/02/06 08:01:20;;;;;;;46.00;26.40;;;13.70;2201.60;;;;;;5030604;28;20028;-60
2023/02/06 08:03:48;;;;;;;56.78;36.35;;;38.40;2201.60;;;;;;5030561;28;20037;-61
2023/02/06 08:06:14;;;;;;;50.95;26.55;;;13.70;2201.60;;;;;;5030298;28;20076;-61
2023/02/06 08:08:41;;;;;;;35.15;22.98;;;13.60;2201.60;;;;;;5030357;28;20021;-62
2023/02/06 08:11:09;;;;;;;26.70;16.63;;;13.60;2201.60;;;;;;5030263;28;20018;-62
2023/02/06 08:13:35;;;;;;;36.47;20.15;;;13.50;2201.60;;;;;;5030015;28;20018;-62
2023/02/06 08:16:07;;;;;;;26.67;13.07;;;38.40;2201.60;;;;;;5030313;28;20453;-62
2023/02/06 08:18:33;;;;;;;28.27;18.50;;;13.40;2201.60;;;;;;5030155;28;20108;-62
2023/02/06 08:21:04;;;;;;;35.53;18.33;;;13.30;2201.60;;;;;;5031665;28;20113;-61
2023/02/06 08:23:30;;;;;;;29.08;15.45;;;13.30;2201.60;;;;;;5034118;28;20034;-61
2023/02/06 08:26:11;;;;;;;25.83;15.65;;;13.10;2201.60;;;;;;5034162;28;20034;-61
2023/02/06 08:28:38;;;;;;;38.85;21.98;;;13.00;2201.60;;;;;;5040500;28;20463;-61
2023/02/06 08:31:22;;;;;;;31.00;17.10;;;0.00;2201.60;;;;;;5045454;28;20024;-61
2023/02/06 08:33:49;;;;;;;22.45;12.88;;;0.30;2201.60;;;;;;5050076;28;20028;-62
2023/02/06 08:36:16;;;;;;;17.77;11.07;;;0.30;2201.60;;;;;;5050711;28;20044;-62
2023/02/06 08:38:42;;;;;;;17.27;10.80;;;0.20;2201.60;;;;;;5050580;28;20029;-62
2023/02/06 08:41:24;;;;;;;34.97;18.05;;;0.50;2201.60;;;;;;5051254;28;20025;-61
2023/02/06 08:43:52;;;;;;;32.10;16.58;;;0.70;2201.60;;;;;;5050761;28;20593;-62
2023/02/06 08:46:20;;;;;;;33.53;17.35;;;0.70;2201.60;;;;;;5050573;28;20024;-62
2023/02/06 08:48:46;;;;;;;19.65;10.35;;;0.90;2201.60;;;;;;5050758;28;20079;-61
2023/02/06 08:51:14;;;;;;;20.38;11.20;;;0.60;2201.60;;;;;;5050271;28;20049;-61
2023/02/06 08:53:40;;;;;;;27.95;12.77;;;0.70;2201.60;;;;;;5050737;28;20569;-63
2023/02/06 08:56:09;;;;;;;27.35;16.13;;;25.60;2201.60;;;;;;5050624;28;20051;-62
2023/02/06 08:58:36;;;;;;;25.58;15.55;;;0.90;2201.60;;;;;;5050180;28;20059;-61
2023/02/06 09:01:15;;;;;;;19.40;10.60;;;0.90;2201.60;;;;;;5050369;28;20033;-61
2023/02/06 09:03:42;;;;;;;202.95;91.88;;;25.90;2201.60;;;;;;5050304;28;20050;-63
2023/02/06 09:06:08;;;;;;;18.55;10.63;;;25.90;2201.60;;;;;;5050497;28;20017;-62
2023/02/06 09:08:34;;;;;;;21.80;12.45;;;25.80;2201.60;;;;;;5050371;28;20071;-62
2023/02/06 09:11:10;;;;;;;32.00;17.50;;;25.90;2201.60;;;;;;5049796;28;20471;-62
2023/02/06 09:13:36;;;;;;;18.27;11.57;;;25.60;2201.60;;;;;;5050260;28;20104;-61
2023/02/06 09:16:03;;;;;;;16.70;11.05;;;25.60;2201.60;;;;;;5050161;28;20040;-61
2023/02/06 09:18:29;;;;;;;76.75;39.67;;;25.70;2201.60;;;;;;5050258;28;20064;-61
2023/02/06 09:21:06;;;;;;;20.52;13.20;;;25.70;2201.60;;;;;;5049876;28;20471;-62
2023/02/06 09:23:32;;;;;;;21.45;11.48;;;25.60;2201.60;;;;;;5049764;28;20049;-61
2023/02/06 09:25:57;;;;;;;22.30;13.93;;;25.70;2201.60;;;;;;5049673;28;20033;-61
2023/02/06 09:28:23;;;;;;;27.08;13.18;;;26.00;2201.60;;;;;;5049948;28;20075;-61
2023/02/06 09:30:49;;;;;;;21.30;13.82;;;26.00;2201.60;;;;;;5050023;28;20494;-61
2023/02/06 09:33:14;;;;;;;34.22;20.38;;;26.10;2201.60;;;;;;5048610;28;20115;-62
2023/02/06 09:35:40;;;;;;;27.17;16.52;;;26.00;2201.60;;;;;;5049728;28;20037;-62
2023/02/06 09:38:06;;;;;;;18.52;11.98;;;26.00;2201.60;;;;;;5049560;28;20056;-61
2023/02/06 09:40:33;;;;;;;19.85;11.88;;;26.00;2201.60;;;;;;5049650;28;20540;-62
2023/02/06 09:43:01;;;;;;;23.20;13.65;;;26.20;2201.60;;;;;;5049785;28;20037;-61
2023/02/06 09:45:28;;;;;;;15.68;10.63;;;26.10;2201.60;;;;;;5049593;28;20044;-62
2023/02/06 09:48:05;;;;;;;120.35;66.32;;;26.30;2201.60;;;;;;5041949;28;20033;-61
2023/02/06 09:50:52;;;;;;;36.38;18.27;;;26.00;2201.60;;;;;;5048804;28;20478;-62
2023/02/06 09:53:28;;;;;;;29.73;16.33;;;26.10;2201.60;;;;;;5067599;28;20080;-63
2023/02/06 09:56:47;;;;;;;19.98;11.57;;;26.10;2201.60;;;;;;5065514;28;20033;-62
2023/02/06 09:59:30;;;;;;;27.92;17.13;;;26.20;2201.60;;;;;;5011027;28;20026;-62
2023/02/06 10:01:58;;;;;;;22.95;12.13;;;51.20;2227.20;;;;;;5013893;28;20041;-62
2023/02/06 10:04:39;;;;;;;38.00;25.50;;;51.80;2227.20;;;;;;5013272;28;20510;-61
2023/02/06 10:07:35;;;;;;;31.88;17.00;;;52.00;2227.20;;;;;;5010721;28;20042;-63
2023/02/06 10:10:09;;;;;;;20.40;13.02;;;51.80;2227.20;;;;;;5004444;28;20118;-63
2023/02/06 10:12:37;;;;;;;32.85;21.08;;;51.50;2227.20;;;;;;5003792;28;20048;-62
2023/02/06 10:15:15;;;;;;;26.35;13.95;;;51.50;2227.20;;;;;;5006299;28;20349;-62
2023/02/06 10:17:51;;;;;;;18.33;10.88;;;51.90;2227.20;;;;;;5004042;28;20467;-63
2023/02/06 10:20:39;;;;;;;18.42;10.68;;;77.00;2227.20;;;;;;5004237;28;20442;-62
2023/02/06 10:23:31;;;;;;;17.17;9.15;;;77.30;2201.60;;;;;;5004943;28;20042;-62
2023/02/06 10:26:17;;;;;;;18.33;10.30;;;77.40;2150.40;;;;;;5004935;28;20084;-62
2023/02/06 10:28:52;;;;;;;22.55;18.17;;;77.20;2201.60;;;;;;5004580;28;20026;-62
2023/02/06 10:31:24;;;;;;;22.67;14.48;;;77.00;2176.00;;;;;;5049172;28;20108;-62
2023/02/06 10:34:03;;;;;;;19.10;13.00;;;77.20;2176.00;;;;;;5054011;28;20032;-63
2023/02/06 10:36:31;;;;;;;15.00;10.60;;;76.90;2176.00;;;;;;5057267;28;20478;-62
2023/02/06 10:39:35;;;;;;;26.15;22.10;;;51.90;2227.20;;;;;;5058200;28;20386;-63
2023/02/06 10:42:37;;;;;;;21.87;12.23;;;51.80;2227.20;;;;;;5058162;28;20435;-62
2023/02/06 10:45:10;;;;;;;16.13;10.60;;;51.70;2227.20;;;;;;5061764;28;20373;-62
2023/02/06 10:47:47;;;;;;;19.80;10.65;;;51.80;2227.20;;;;;;5052900;28;20022;-62
2023/02/06 10:50:35;;;;;;;19.35;10.88;;;51.90;2227.20;;;;;;5046452;28;20588;-62
2023/02/06 10:53:23;;;;;;;17.25;9.98;;;51.70;2227.20;;;;;;5039650;28;20028;-62
2023/02/06 10:55:56;;;;;;;19.80;11.40;;;52.00;2227.20;;;;;;5038603;28;20037;-61
2023/02/06 10:58:34;;;;;;;18.45;11.32;;;76.80;2227.20;;;;;;5046515;28;20029;-63
2023/02/06 11:01:03;;;;;;;17.88;11.73;;;51.70;2227.20;;;;;;5046592;28;20545;-63
2023/02/06 11:03:30;;;;;;;16.20;10.40;;;52.00;2227.20;;;;;;5047688;28;20386;-62
2023/02/06 11:05:58;;;;;;;19.15;12.48;;;51.90;2227.20;;;;;;5047520;28;20028;-63
2023/02/06 11:08:31;;;;;;;18.75;13.68;;;51.90;2227.20;;;;;;5047342;28;20025;-64
2023/02/06 11:10:57;;;;;;;16.23;10.18;;;52.10;2201.60;;;;;;5047478;28;20427;-62
2023/02/06 11:13:35;;;;;;;20.02;11.38;;;52.10;2201.60;;;;;;5047983;28;20082;-62
2023/02/06 11:16:03;;;;;;;19.80;11.32;;;77.00;2201.60;;;;;;5047467;28;20035;-63
2023/02/06 11:18:38;;;;;;;20.27;11.45;;;52.00;2227.20;;;;;;5048272;28;20104;-63
2023/02/06 11:21:04;;;;;;;16.95;10.95;;;52.10;2227.20;;;;;;5048732;28;20025;-63
2023/02/06 11:23:33;;;;;;;22.55;11.23;;;52.10;2227.20;;;;;;5048148;28;20029;-63
2023/02/06 11:26:09;;;;;;;18.77;10.70;;;77.10;2176.00;;;;;;5048752;28;20041;-63
2023/02/06 11:28:38;;;;;;;20.02;11.35;;;76.90;2201.60;;;;;;5048508;28;20048;-63
2023/02/06 11:31:07;;;;;;;21.27;13.40;;;76.90;2201.60;;;;;;5048404;28;20040;-62
2023/02/06 11:33:44;;;;;;;20.73;13.63;;;77.00;2201.60;;;;;;5048590;28;20024;-62
2023/02/06 11:36:24;;;;;;;22.60;13.45;;;76.80;2201.60;;;;;;5048039;28;20035;-63
2023/02/06 11:38:58;;;;;;;20.60;12.65;;;76.80;2227.20;;;;;;5048362;28;20125;-63
2023/02/06 11:41:24;;;;;;;16.45;10.55;;;51.90;2227.20;;;;;;5048223;28;20032;-63
2023/02/06 11:43:52;;;;;;;18.77;11.57;;;76.90;2201.60;;;;;;5048220;28;20120;-62
2023/02/06 11:46:22;;;;;;;15.82;10.82;;;76.80;2201.60;;;;;;5048538;28;20025;-62
2023/02/06 11:49:05;;;;;;;26.20;14.07;;;77.30;2176.00;;;;;;5048118;28;20517;-62
2023/02/06 11:51:45;;;;;;;19.95;9.57;;;77.50;2150.40;;;;;;5047973;28;20056;-63
2023/02/06 11:54:26;;;;;;;17.70;10.57;;;77.30;2124.80;;;;;;5048215;28;20035;-63
2023/02/06 11:57:18;;;;;;;18.25;9.57;;;77.10;2176.00;;;;;;5047845;28;20029;-62
2023/02/06 11:59:51;;;;;;;23.23;14.65;;;76.90;2201.60;;;;;;5048262;28;20025;-63
2023/02/06 12:02:34;;;;;;;17.65;11.40;;;76.90;2201.60;;;;;;5047895;28;20078;-62
2023/02/06 12:05:16;;;;;;;23.05;12.20;;;51.70;2227.20;;;;;;5048039;28;20033;-63
2023/02/06 12:08:16;;;;;;;16.45;10.15;;;51.90;2227.20;;;;;;5047916;28;20061;-63
2023/02/06 12:10:57;;;;;;;36.83;23.02;;;52.10;2227.20;;;;;;4986237;28;20558;-63
2023/02/06 12:13:46;;;;;;;18.23;11.05;;;52.00;2227.20;;;;;;4986269;28;20022;-62
2023/02/06 12:16:14;;;;;;;19.23;10.57;;;51.80;2227.20;;;;;;4986331;28;20493;-62
2023/02/06 12:18:43;;;;;;;19.13;10.48;;;51.70;2227.20;;;;;;4986403;28;20117;-62
2023/02/06 12:21:28;;;;;;;28.30;16.20;;;51.70;2227.20;;;;;;4986481;28;20049;-62
2023/02/06 12:24:01;;;;;;;18.23;11.80;;;76.80;2227.20;;;;;;4986237;28;20655;-62
2023/02/06 12:26:29;;;;;;;19.50;10.57;;;77.00;2227.20;;;;;;4985922;28;20031;-63